sensor_id;sensor_type;location;lat;lon;timestamp;temperature;humidity
2260;DHT22;333;48.800;9.530;2023-07-20T00:01:38;20.00;96.60
2260;DHT22;333;48.800;9.530;2023-07-20T00:04:06;20.00;96.40
2260;DHT22;333;48.800;9.530;2023-07-20T00:06:33;20.00;96.30
2260;DHT22;333;48.800;9.530;2023-07-20T00:09:02;20.00;96.50
2260;DHT22;333;48.800;9.530;2023-07-20T00:11:29;19.90;96.70
2260;DHT22;333;48.800;9.530;2023-07-20T00:13:56;19.90;96.90
2260;DHT22;333;48.800;9.530;2023-07-20T00:16:23;19.80;97.20
2260;DHT22;333;48.800;9.530;2023-07-20T00:18:50;19.90;97.10
2260;DHT22;333;48.800;9.530;2023-07-20T00:21:18;19.80;97.40
2260;DHT22;333;48.800;9.530;2023-07-20T00:23:45;19.60;98.00
2260;DHT22;333;48.800;9.530;2023-07-20T00:26:16;19.70;97.20
2260;DHT22;333;48.800;9.530;2023-07-20T00:28:43;19.60;97.30
2260;DHT22;333;48.800;9.530;2023-07-20T00:31:10;19.50;97.60
2260;DHT22;333;48.800;9.530;2023-07-20T00:33:37;19.40;97.60
2260;DHT22;333;48.800;9.530;2023-07-20T00:36:05;19.30;98.00
2260;DHT22;333;48.800;9.530;2023-07-20T00:38:32;19.30;98.00
2260;DHT22;333;48.800;9.530;2023-07-20T00:40:59;19.30;98.30
2260;DHT22;333;48.800;9.530;2023-07-20T00:43:27;19.00;99.10
2260;DHT22;333;48.800;9.530;2023-07-20T00:45:54;19.10;99.30
2260;DHT22;333;48.800;9.530;2023-07-20T00:48:21;19.10;99.20
2260;DHT22;333;48.800;9.530;2023-07-20T00:50:48;19.10;99.50
2260;DHT22;333;48.800;9.530;2023-07-20T00:53:16;19.20;98.90
2260;DHT22;333;48.800;9.530;2023-07-20T00:55:44;19.10;98.70
2260;DHT22;333;48.800;9.530;2023-07-20T00:58:11;19.10;97.60
2260;DHT22;333;48.800;9.530;2023-07-20T01:00:39;19.10;98.40
2260;DHT22;333;48.800;9.530;2023-07-20T01:03:06;19.00;99.30
2260;DHT22;333;48.800;9.530;2023-07-20T01:05:38;18.90;99.60
2260;DHT22;333;48.800;9.530;2023-07-20T01:08:12;18.80;99.60
2260;DHT22;333;48.800;9.530;2023-07-20T01:10:44;18.70;99.60
2260;DHT22;333;48.800;9.530;2023-07-20T01:13:14;18.60;99.60
2260;DHT22;333;48.800;9.530;2023-07-20T01:15:49;18.50;99.60
2260;DHT22;333;48.800;9.530;2023-07-20T01:18:16;18.40;99.60
2260;DHT22;333;48.800;9.530;2023-07-20T01:20:44;18.20;99.60
2260;DHT22;333;48.800;9.530;2023-07-20T01:23:34;18.20;99.60
2260;DHT22;333;48.800;9.530;2023-07-20T01:26:27;18.30;99.60
2260;DHT22;333;48.800;9.530;2023-07-20T01:29:20;18.20;99.60
2260;DHT22;333;48.800;9.530;2023-07-20T01:31:51;18.40;99.50
2260;DHT22;333;48.800;9.530;2023-07-20T01:34:19;18.30;99.00
2260;DHT22;333;48.800;9.530;2023-07-20T01:36:48;18.40;98.60
2260;DHT22;333;48.800;9.530;2023-07-20T01:39:16;18.40;98.50
2260;DHT22;333;48.800;9.530;2023-07-20T01:41:45;18.30;98.50
2260;DHT22;333;48.800;9.530;2023-07-20T01:44:13;18.20;98.90
2260;DHT22;333;48.800;9.530;2023-07-20T01:46:39;18.30;98.70
2260;DHT22;333;48.800;9.530;2023-07-20T01:49:08;18.30;98.90
2260;DHT22;333;48.800;9.530;2023-07-20T01:51:35;18.30;98.50
2260;DHT22;333;48.800;9.530;2023-07-20T01:54:02;18.30;98.70
2260;DHT22;333;48.800;9.530;2023-07-20T01:56:29;18.20;99.00
2260;DHT22;333;48.800;9.530;2023-07-20T01:58:56;18.20;99.00
2260;DHT22;333;48.800;9.530;2023-07-20T02:01:23;18.10;99.00
2260;DHT22;333;48.800;9.530;2023-07-20T02:03:50;18.10;99.20
2260;DHT22;333;48.800;9.530;2023-07-20T02:06:18;18.00;99.60
2260;DHT22;333;48.800;9.530;2023-07-20T02:08:47;17.90;99.60
2260;DHT22;333;48.800;9.530;2023-07-20T02:11:14;17.90;99.60
2260;DHT22;333;48.800;9.530;2023-07-20T02:13:41;17.80;99.60
2260;DHT22;333;48.800;9.530;2023-07-20T02:16:08;17.80;99.60
2260;DHT22;333;48.800;9.530;2023-07-20T02:18:36;17.80;99.60
2260;DHT22;333;48.800;9.530;2023-07-20T02:21:03;17.70;99.60
2260;DHT22;333;48.800;9.530;2023-07-20T02:23:32;17.70;99.60
2260;DHT22;333;48.800;9.530;2023-07-20T02:25:59;17.60;99.60
2260;DHT22;333;48.800;9.530;2023-07-20T02:28:26;17.60;99.60
2260;DHT22;333;48.800;9.530;2023-07-20T02:30:53;17.50;99.60
2260;DHT22;333;48.800;9.530;2023-07-20T02:33:20;17.50;99.60
2260;DHT22;333;48.800;9.530;2023-07-20T02:35:47;17.50;99.60
2260;DHT22;333;48.800;9.530;2023-07-20T02:38:14;17.40;99.60
2260;DHT22;333;48.800;9.530;2023-07-20T02:40:43;17.40;99.60
2260;DHT22;333;48.800;9.530;2023-07-20T02:43:10;17.30;99.60
2260;DHT22;333;48.800;9.530;2023-07-20T02:45:40;17.30;99.60
2260;DHT22;333;48.800;9.530;2023-07-20T02:48:07;17.30;99.60
2260;DHT22;333;48.800;9.530;2023-07-20T02:50:34;17.10;99.60
2260;DHT22;333;48.800;9.530;2023-07-20T02:53:02;17.00;99.60
2260;DHT22;333;48.800;9.530;2023-07-20T02:55:29;16.90;99.60
2260;DHT22;333;48.800;9.530;2023-07-20T02:57:57;16.80;99.60
2260;DHT22;333;48.800;9.530;2023-07-20T03:00:24;16.80;99.60
2260;DHT22;333;48.800;9.530;2023-07-20T03:02:51;16.70;99.60
2260;DHT22;333;48.800;9.530;2023-07-20T03:05:21;16.60;99.60
2260;DHT22;333;48.800;9.530;2023-07-20T03:07:48;16.60;99.60
2260;DHT22;333;48.800;9.530;2023-07-20T03:10:15;16.60;99.60
2260;DHT22;333;48.800;9.530;2023-07-20T03:12:42;16.60;99.60
2260;DHT22;333;48.800;9.530;2023-07-20T03:15:11;16.70;99.60
2260;DHT22;333;48.800;9.530;2023-07-20T03:17:38;16.80;99.60
2260;DHT22;333;48.800;9.530;2023-07-20T03:20:06;16.70;99.60
2260;DHT22;333;48.800;9.530;2023-07-20T03:22:34;16.60;99.60
2260;DHT22;333;48.800;9.530;2023-07-20T03:25:01;16.50;99.60
2260;DHT22;333;48.800;9.530;2023-07-20T03:27:30;16.50;99.60
2260;DHT22;333;48.800;9.530;2023-07-20T03:29:56;16.40;99.60
2260;DHT22;333;48.800;9.530;2023-07-20T03:32:25;16.40;99.60
2260;DHT22;333;48.800;9.530;2023-07-20T03:34:52;16.40;99.60
2260;DHT22;333;48.800;9.530;2023-07-20T03:37:19;16.20;99.60
2260;DHT22;333;48.800;9.530;2023-07-20T03:39:47;16.10;99.60
2260;DHT22;333;48.800;9.530;2023-07-20T03:42:14;16.30;99.60
2260;DHT22;333;48.800;9.530;2023-07-20T03:44:41;16.30;99.60
2260;DHT22;333;48.800;9.530;2023-07-20T03:47:08;16.30;99.60
2260;DHT22;333;48.800;9.530;2023-07-20T03:49:37;16.30;99.60
2260;DHT22;333;48.800;9.530;2023-07-20T03:52:04;16.40;99.60
2260;DHT22;333;48.800;9.530;2023-07-20T03:54:31;16.30;99.60
2260;DHT22;333;48.800;9.530;2023-07-20T03:56:58;16.20;99.60
2260;DHT22;333;48.800;9.530;2023-07-20T03:59:26;16.10;99.60
2260;DHT22;333;48.800;9.530;2023-07-20T04:01:53;16.00;99.60
2260;DHT22;333;48.800;9.530;2023-07-20T04:04:20;15.90;99.60
2260;DHT22;333;48.800;9.530;2023-07-20T04:06:48;16.00;99.60
2260;DHT22;333;48.800;9.530;2023-07-20T04:09:15;16.00;99.60
2260;DHT22;333;48.800;9.530;2023-07-20T04:11:42;15.90;99.60
2260;DHT22;333;48.800;9.530;2023-07-20T04:14:10;15.80;99.60
2260;DHT22;333;48.800;9.530;2023-07-20T04:16:37;15.70;99.60
2260;DHT22;333;48.800;9.530;2023-07-20T04:19:04;15.70;99.60
2260;DHT22;333;48.800;9.530;2023-07-20T04:22:01;15.70;99.60
2260;DHT22;333;48.800;9.530;2023-07-20T04:24:28;15.80;99.60
2260;DHT22;333;48.800;9.530;2023-07-20T04:27:12;15.90;99.60
2260;DHT22;333;48.800;9.530;2023-07-20T04:29:39;15.90;99.60
2260;DHT22;333;48.800;9.530;2023-07-20T04:32:22;15.90;99.60
2260;DHT22;333;48.800;9.530;2023-07-20T04:34:49;15.90;99.60
2260;DHT22;333;48.800;9.530;2023-07-20T04:37:17;16.00;99.60
2260;DHT22;333;48.800;9.530;2023-07-20T04:39:48;16.20;99.60
2260;DHT22;333;48.800;9.530;2023-07-20T04:42:15;16.20;99.60
2260;DHT22;333;48.800;9.530;2023-07-20T04:44:42;16.30;99.60
2260;DHT22;333;48.800;9.530;2023-07-20T04:47:10;16.30;99.60
2260;DHT22;333;48.800;9.530;2023-07-20T04:49:37;16.30;99.60
2260;DHT22;333;48.800;9.530;2023-07-20T04:52:05;16.30;99.60
2260;DHT22;333;48.800;9.530;2023-07-20T04:54:33;16.40;99.60
2260;DHT22;333;48.800;9.530;2023-07-20T04:57:00;16.50;99.60
2260;DHT22;333;48.800;9.530;2023-07-20T04:59:27;16.50;99.60
2260;DHT22;333;48.800;9.530;2023-07-20T05:01:54;16.60;99.60
2260;DHT22;333;48.800;9.530;2023-07-20T05:04:21;16.60;99.60
2260;DHT22;333;48.800;9.530;2023-07-20T05:06:48;16.80;99.60
2260;DHT22;333;48.800;9.530;2023-07-20T05:09:18;16.80;99.60
2260;DHT22;333;48.800;9.530;2023-07-20T05:11:47;16.90;99.60
2260;DHT22;333;48.800;9.530;2023-07-20T05:14:14;17.00;99.60
2260;DHT22;333;48.800;9.530;2023-07-20T05:16:41;17.00;99.60
2260;DHT22;333;48.800;9.530;2023-07-20T05:19:09;17.00;99.60
2260;DHT22;333;48.800;9.530;2023-07-20T05:21:36;17.10;99.60
2260;DHT22;333;48.800;9.530;2023-07-20T05:24:03;17.20;99.60
2260;DHT22;333;48.800;9.530;2023-07-20T05:26:30;17.40;99.60
2260;DHT22;333;48.800;9.530;2023-07-20T05:29:00;17.50;99.60
2260;DHT22;333;48.800;9.530;2023-07-20T05:31:27;17.80;99.60
2260;DHT22;333;48.800;9.530;2023-07-20T05:33:56;17.70;99.60
2260;DHT22;333;48.800;9.530;2023-07-20T05:36:23;17.70;99.60
2260;DHT22;333;48.800;9.530;2023-07-20T05:38:51;17.80;99.60
2260;DHT22;333;48.800;9.530;2023-07-20T05:41:22;17.90;99.60
2260;DHT22;333;48.800;9.530;2023-07-20T05:43:50;18.10;99.60
2260;DHT22;333;48.800;9.530;2023-07-20T05:46:20;18.30;99.60
2260;DHT22;333;48.800;9.530;2023-07-20T05:48:47;18.30;99.60
2260;DHT22;333;48.800;9.530;2023-07-20T05:51:14;18.40;99.60
2260;DHT22;333;48.800;9.530;2023-07-20T05:53:41;18.60;99.60
2260;DHT22;333;48.800;9.530;2023-07-20T05:56:08;18.80;99.60
2260;DHT22;333;48.800;9.530;2023-07-20T05:58:36;19.10;99.60
2260;DHT22;333;48.800;9.530;2023-07-20T06:01:03;19.20;99.60
2260;DHT22;333;48.800;9.530;2023-07-20T06:03:33;19.40;99.60
2260;DHT22;333;48.800;9.530;2023-07-20T06:06:01;19.70;99.60
2260;DHT22;333;48.800;9.530;2023-07-20T06:08:28;19.90;99.60
2260;DHT22;333;48.800;9.530;2023-07-20T06:10:55;19.80;98.60
2260;DHT22;333;48.800;9.530;2023-07-20T06:13:22;20.00;98.40
2260;DHT22;333;48.800;9.530;2023-07-20T06:15:49;20.20;97.50
2260;DHT22;333;48.800;9.530;2023-07-20T06:18:16;20.60;97.00
2260;DHT22;333;48.800;9.530;2023-07-20T06:20:50;20.70;95.40
2260;DHT22;333;48.800;9.530;2023-07-20T06:23:17;20.70;96.10
2260;DHT22;333;48.800;9.530;2023-07-20T06:25:45;20.70;95.90
2260;DHT22;333;48.800;9.530;2023-07-20T06:28:12;20.80;95.40
2260;DHT22;333;48.800;9.530;2023-07-20T06:30:39;20.80;95.60
2260;DHT22;333;48.800;9.530;2023-07-20T06:33:06;21.00;96.40
2260;DHT22;333;48.800;9.530;2023-07-20T06:35:34;21.20;95.20
2260;DHT22;333;48.800;9.530;2023-07-20T06:38:02;21.30;94.00
2260;DHT22;333;48.800;9.530;2023-07-20T06:40:30;21.40;95.30
2260;DHT22;333;48.800;9.530;2023-07-20T06:42:57;21.60;93.60
2260;DHT22;333;48.800;9.530;2023-07-20T06:45:24;21.60;93.10
2260;DHT22;333;48.800;9.530;2023-07-20T06:47:51;21.70;93.00
2260;DHT22;333;48.800;9.530;2023-07-20T06:50:18;21.70;92.90
2260;DHT22;333;48.800;9.530;2023-07-20T06:52:45;21.80;92.70
2260;DHT22;333;48.800;9.530;2023-07-20T06:55:14;21.80;91.90
2260;DHT22;333;48.800;9.530;2023-07-20T06:57:42;21.80;92.50
2260;DHT22;333;48.800;9.530;2023-07-20T07:00:10;21.80;92.30
2260;DHT22;333;48.800;9.530;2023-07-20T07:02:37;21.70;91.40
2260;DHT22;333;48.800;9.530;2023-07-20T07:05:05;21.70;92.30
2260;DHT22;333;48.800;9.530;2023-07-20T07:07:32;21.80;91.40
2260;DHT22;333;48.800;9.530;2023-07-20T07:10:00;21.90;91.80
2260;DHT22;333;48.800;9.530;2023-07-20T07:12:30;21.90;91.50
2260;DHT22;333;48.800;9.530;2023-07-20T07:14:57;21.90;91.00
2260;DHT22;333;48.800;9.530;2023-07-20T07:17:25;21.90;91.40
2260;DHT22;333;48.800;9.530;2023-07-20T07:19:52;21.90;91.60
2260;DHT22;333;48.800;9.530;2023-07-20T07:22:20;21.60;91.70
2260;DHT22;333;48.800;9.530;2023-07-20T07:24:47;21.50;92.50
2260;DHT22;333;48.800;9.530;2023-07-20T07:27:14;21.30;92.90
2260;DHT22;333;48.800;9.530;2023-07-20T07:29:43;21.10;94.20
2260;DHT22;333;48.800;9.530;2023-07-20T07:32:10;21.20;94.50
2260;DHT22;333;48.800;9.530;2023-07-20T07:34:37;21.40;93.60
2260;DHT22;333;48.800;9.530;2023-07-20T07:37:05;21.70;93.20
2260;DHT22;333;48.800;9.530;2023-07-20T07:39:32;21.90;92.70
2260;DHT22;333;48.800;9.530;2023-07-20T07:41:59;21.90;92.10
2260;DHT22;333;48.800;9.530;2023-07-20T07:44:26;21.90;92.90
2260;DHT22;333;48.800;9.530;2023-07-20T07:46:54;21.90;92.70
2260;DHT22;333;48.800;9.530;2023-07-20T07:49:21;21.90;92.60
2260;DHT22;333;48.800;9.530;2023-07-20T07:51:49;21.90;92.30
2260;DHT22;333;48.800;9.530;2023-07-20T07:54:16;22.00;92.40
2260;DHT22;333;48.800;9.530;2023-07-20T07:56:43;22.00;91.10
2260;DHT22;333;48.800;9.530;2023-07-20T07:59:10;21.90;91.90
2260;DHT22;333;48.800;9.530;2023-07-20T08:01:37;22.00;92.70
2260;DHT22;333;48.800;9.530;2023-07-20T08:04:05;22.20;92.10
2260;DHT22;333;48.800;9.530;2023-07-20T08:06:32;22.40;90.70
2260;DHT22;333;48.800;9.530;2023-07-20T08:08:59;22.70;90.80
2260;DHT22;333;48.800;9.530;2023-07-20T08:11:26;22.70;90.50
2260;DHT22;333;48.800;9.530;2023-07-20T08:13:56;22.50;90.00
2260;DHT22;333;48.800;9.530;2023-07-20T08:16:23;22.50;90.20
2260;DHT22;333;48.800;9.530;2023-07-20T08:18:50;22.50;91.10
2260;DHT22;333;48.800;9.530;2023-07-20T08:21:18;22.40;90.60
2260;DHT22;333;48.800;9.530;2023-07-20T08:23:45;22.60;90.90
2260;DHT22;333;48.800;9.530;2023-07-20T08:26:12;22.80;89.90
2260;DHT22;333;48.800;9.530;2023-07-20T08:28:39;22.30;91.20
2260;DHT22;333;48.800;9.530;2023-07-20T08:31:06;22.10;92.00
2260;DHT22;333;48.800;9.530;2023-07-20T08:33:33;22.00;91.90
2260;DHT22;333;48.800;9.530;2023-07-20T08:36:01;21.70;93.00
2260;DHT22;333;48.800;9.530;2023-07-20T08:38:30;21.80;93.00
2260;DHT22;333;48.800;9.530;2023-07-20T08:40:57;22.20;92.50
2260;DHT22;333;48.800;9.530;2023-07-20T08:43:27;22.40;91.20
2260;DHT22;333;48.800;9.530;2023-07-20T08:45:55;22.50;91.30
2260;DHT22;333;48.800;9.530;2023-07-20T08:48:22;22.80;90.80
2260;DHT22;333;48.800;9.530;2023-07-20T08:50:52;22.90;89.80
2260;DHT22;333;48.800;9.530;2023-07-20T08:53:20;23.10;88.80
2260;DHT22;333;48.800;9.530;2023-07-20T08:55:51;23.00;88.20
2260;DHT22;333;48.800;9.530;2023-07-20T08:58:18;23.20;88.20
2260;DHT22;333;48.800;9.530;2023-07-20T09:00:45;23.30;88.10
2260;DHT22;333;48.800;9.530;2023-07-20T09:03:17;23.40;87.80
2260;DHT22;333;48.800;9.530;2023-07-20T09:05:45;23.50;87.40
2260;DHT22;333;48.800;9.530;2023-07-20T09:08:12;23.60;86.40
2260;DHT22;333;48.800;9.530;2023-07-20T09:10:39;23.20;87.20
2260;DHT22;333;48.800;9.530;2023-07-20T09:13:14;23.00;86.80
2260;DHT22;333;48.800;9.530;2023-07-20T09:15:45;22.80;87.60
2260;DHT22;333;48.800;9.530;2023-07-20T09:18:24;22.70;87.80
2260;DHT22;333;48.800;9.530;2023-07-20T09:20:51;22.90;88.30
2260;DHT22;333;48.800;9.530;2023-07-20T09:23:18;22.70;89.10
2260;DHT22;333;48.800;9.530;2023-07-20T09:25:47;22.70;89.30
2260;DHT22;333;48.800;9.530;2023-07-20T09:28:18;22.70;89.00
2260;DHT22;333;48.800;9.530;2023-07-20T09:30:44;22.50;89.30
2260;DHT22;333;48.800;9.530;2023-07-20T09:33:18;22.40;89.00
2260;DHT22;333;48.800;9.530;2023-07-20T09:35:46;22.30;89.20
2260;DHT22;333;48.800;9.530;2023-07-20T09:38:14;22.60;88.90
2260;DHT22;333;48.800;9.530;2023-07-20T09:40:42;23.00;88.50
2260;DHT22;333;48.800;9.530;2023-07-20T09:43:10;23.50;86.40
2260;DHT22;333;48.800;9.530;2023-07-20T09:45:41;23.60;85.50
2260;DHT22;333;48.800;9.530;2023-07-20T09:48:09;23.50;85.80
2260;DHT22;333;48.800;9.530;2023-07-20T09:50:40;23.40;83.60
2260;DHT22;333;48.800;9.530;2023-07-20T09:53:11;23.30;84.00
2260;DHT22;333;48.800;9.530;2023-07-20T09:55:40;23.30;85.00
2260;DHT22;333;48.800;9.530;2023-07-20T09:58:08;23.90;82.50
2260;DHT22;333;48.800;9.530;2023-07-20T10:00:36;24.40;82.20
2260;DHT22;333;48.800;9.530;2023-07-20T10:03:05;24.70;80.50
2260;DHT22;333;48.800;9.530;2023-07-20T10:05:33;25.50;79.60
2260;DHT22;333;48.800;9.530;2023-07-20T10:08:02;25.60;78.60
2260;DHT22;333;48.800;9.530;2023-07-20T10:10:33;25.00;78.60
2260;DHT22;333;48.800;9.530;2023-07-20T10:13:01;25.20;78.30
2260;DHT22;333;48.800;9.530;2023-07-20T10:15:33;24.70;79.40
2260;DHT22;333;48.800;9.530;2023-07-20T10:18:07;24.20;79.80
2260;DHT22;333;48.800;9.530;2023-07-20T10:20:36;23.80;80.30
2260;DHT22;333;48.800;9.530;2023-07-20T10:23:07;23.40;81.80
2260;DHT22;333;48.800;9.530;2023-07-20T10:25:34;23.30;83.20
2260;DHT22;333;48.800;9.530;2023-07-20T10:28:04;23.70;82.70
2260;DHT22;333;48.800;9.530;2023-07-20T10:30:33;23.90;80.90
2260;DHT22;333;48.800;9.530;2023-07-20T10:33:01;24.10;81.90
2260;DHT22;333;48.800;9.530;2023-07-20T10:35:31;24.50;79.80
2260;DHT22;333;48.800;9.530;2023-07-20T10:38:01;24.80;79.00
2260;DHT22;333;48.800;9.530;2023-07-20T10:40:30;25.00;77.50
2260;DHT22;333;48.800;9.530;2023-07-20T10:42:59;25.40;77.00
2260;DHT22;333;48.800;9.530;2023-07-20T10:45:47;25.40;76.40
2260;DHT22;333;48.800;9.530;2023-07-20T10:48:16;25.50;76.50
2260;DHT22;333;48.800;9.530;2023-07-20T10:51:08;25.90;74.70
2260;DHT22;333;48.800;9.530;2023-07-20T10:53:33;25.80;75.00
2260;DHT22;333;48.800;9.530;2023-07-20T10:56:07;25.80;75.30
2260;DHT22;333;48.800;9.530;2023-07-20T10:58:34;26.20;76.10
2260;DHT22;333;48.800;9.530;2023-07-20T11:01:03;26.20;74.30
2260;DHT22;333;48.800;9.530;2023-07-20T11:03:33;26.10;73.10
2260;DHT22;333;48.800;9.530;2023-07-20T11:06:29;25.90;73.60
2260;DHT22;333;48.800;9.530;2023-07-20T11:09:05;24.80;75.60
2260;DHT22;333;48.800;9.530;2023-07-20T11:11:34;24.40;76.60
2260;DHT22;333;48.800;9.530;2023-07-20T11:14:04;24.80;75.40
2260;DHT22;333;48.800;9.530;2023-07-20T11:16:38;25.20;75.30
2260;DHT22;333;48.800;9.530;2023-07-20T11:19:13;25.70;73.60
2260;DHT22;333;48.800;9.530;2023-07-20T11:21:44;25.90;73.10
2260;DHT22;333;48.800;9.530;2023-07-20T11:24:11;25.90;72.60
2260;DHT22;333;48.800;9.530;2023-07-20T11:26:46;26.30;72.40
2260;DHT22;333;48.800;9.530;2023-07-20T11:29:16;26.20;70.90
2260;DHT22;333;48.800;9.530;2023-07-20T11:31:44;26.70;72.60
2260;DHT22;333;48.800;9.530;2023-07-20T11:34:13;26.90;69.60
2260;DHT22;333;48.800;9.530;2023-07-20T11:36:42;26.80;69.40
2260;DHT22;333;48.800;9.530;2023-07-20T11:39:10;25.90;70.80
2260;DHT22;333;48.800;9.530;2023-07-20T11:41:38;26.40;71.10
2260;DHT22;333;48.800;9.530;2023-07-20T11:44:05;26.70;70.30
2260;DHT22;333;48.800;9.530;2023-07-20T11:46:33;26.10;70.30
2260;DHT22;333;48.800;9.530;2023-07-20T11:49:00;26.10;70.60
2260;DHT22;333;48.800;9.530;2023-07-20T11:51:28;26.50;70.30
2260;DHT22;333;48.800;9.530;2023-07-20T11:53:57;26.80;69.70
2260;DHT22;333;48.800;9.530;2023-07-20T11:56:26;26.70;69.60
2260;DHT22;333;48.800;9.530;2023-07-20T11:58:55;26.90;68.90
2260;DHT22;333;48.800;9.530;2023-07-20T12:01:25;26.90;67.90
2260;DHT22;333;48.800;9.530;2023-07-20T12:03:55;26.40;69.10
2260;DHT22;333;48.800;9.530;2023-07-20T12:06:23;26.80;69.00
2260;DHT22;333;48.800;9.530;2023-07-20T12:08:55;26.90;68.80
2260;DHT22;333;48.800;9.530;2023-07-20T12:11:37;27.00;67.40
2260;DHT22;333;48.800;9.530;2023-07-20T12:14:06;26.60;67.80
2260;DHT22;333;48.800;9.530;2023-07-20T12:16:34;26.40;68.90
2260;DHT22;333;48.800;9.530;2023-07-20T12:19:02;27.00;67.40
2260;DHT22;333;48.800;9.530;2023-07-20T12:21:29;27.50;66.40
2260;DHT22;333;48.800;9.530;2023-07-20T12:23:58;26.60;67.50
2260;DHT22;333;48.800;9.530;2023-07-20T12:26:25;26.70;67.80
2260;DHT22;333;48.800;9.530;2023-07-20T12:28:54;26.90;67.80
2260;DHT22;333;48.800;9.530;2023-07-20T12:31:22;26.60;68.60
2260;DHT22;333;48.800;9.530;2023-07-20T12:33:50;26.70;68.00
2260;DHT22;333;48.800;9.530;2023-07-20T12:36:17;26.80;67.20
2260;DHT22;333;48.800;9.530;2023-07-20T12:38:45;27.30;67.20
2260;DHT22;333;48.800;9.530;2023-07-20T12:41:13;27.50;65.60
2260;DHT22;333;48.800;9.530;2023-07-20T12:43:42;27.90;65.80
2260;DHT22;333;48.800;9.530;2023-07-20T12:46:12;28.00;65.40
2260;DHT22;333;48.800;9.530;2023-07-20T12:48:40;28.00;65.00
2260;DHT22;333;48.800;9.530;2023-07-20T12:51:07;28.10;64.10
2260;DHT22;333;48.800;9.530;2023-07-20T12:53:35;28.30;63.40
2260;DHT22;333;48.800;9.530;2023-07-20T12:56:02;28.40;61.70
2260;DHT22;333;48.800;9.530;2023-07-20T12:58:30;28.50;63.90
2260;DHT22;333;48.800;9.530;2023-07-20T13:00:57;28.10;63.60
2260;DHT22;333;48.800;9.530;2023-07-20T13:03:26;27.40;63.20
2260;DHT22;333;48.800;9.530;2023-07-20T13:05:53;27.10;63.80
2260;DHT22;333;48.800;9.530;2023-07-20T13:08:20;27.30;65.50
2260;DHT22;333;48.800;9.530;2023-07-20T13:10:50;27.50;64.30
2260;DHT22;333;48.800;9.530;2023-07-20T13:13:18;28.00;63.90
2260;DHT22;333;48.800;9.530;2023-07-20T13:15:45;28.10;62.50
2260;DHT22;333;48.800;9.530;2023-07-20T13:18:13;28.00;63.10
2260;DHT22;333;48.800;9.530;2023-07-20T13:20:41;27.90;62.20
2260;DHT22;333;48.800;9.530;2023-07-20T13:23:08;28.40;61.60
2260;DHT22;333;48.800;9.530;2023-07-20T13:25:36;28.10;62.20
2260;DHT22;333;48.800;9.530;2023-07-20T13:28:04;28.30;61.80
2260;DHT22;333;48.800;9.530;2023-07-20T13:30:31;27.80;62.90
2260;DHT22;333;48.800;9.530;2023-07-20T13:32:59;27.60;63.00
2260;DHT22;333;48.800;9.530;2023-07-20T13:35:26;28.30;62.30
2260;DHT22;333;48.800;9.530;2023-07-20T13:37:54;27.60;62.70
2260;DHT22;333;48.800;9.530;2023-07-20T13:40:21;27.60;64.10
2260;DHT22;333;48.800;9.530;2023-07-20T13:42:49;27.90;62.50
2260;DHT22;333;48.800;9.530;2023-07-20T13:45:16;27.60;62.60
2260;DHT22;333;48.800;9.530;2023-07-20T13:47:43;28.00;63.30
2260;DHT22;333;48.800;9.530;2023-07-20T13:50:10;27.30;62.50
2260;DHT22;333;48.800;9.530;2023-07-20T13:52:37;26.70;64.10
2260;DHT22;333;48.800;9.530;2023-07-20T13:55:06;27.20;63.70
2260;DHT22;333;48.800;9.530;2023-07-20T13:57:33;27.90;62.50
2260;DHT22;333;48.800;9.530;2023-07-20T14:00:00;27.50;62.80
2260;DHT22;333;48.800;9.530;2023-07-20T14:02:29;27.50;63.10
2260;DHT22;333;48.800;9.530;2023-07-20T14:04:56;27.90;62.00
2260;DHT22;333;48.800;9.530;2023-07-20T14:07:24;28.30;61.30
2260;DHT22;333;48.800;9.530;2023-07-20T14:09:51;28.70;61.40
2260;DHT22;333;48.800;9.530;2023-07-20T14:12:19;29.20;60.50
2260;DHT22;333;48.800;9.530;2023-07-20T14:14:46;29.30;59.70
2260;DHT22;333;48.800;9.530;2023-07-20T14:17:13;27.30;61.80
2260;DHT22;333;48.800;9.530;2023-07-20T14:19:40;27.20;63.10
2260;DHT22;333;48.800;9.530;2023-07-20T14:22:07;28.20;61.90
2260;DHT22;333;48.800;9.530;2023-07-20T14:24:34;29.20;60.00
2260;DHT22;333;48.800;9.530;2023-07-20T14:27:01;29.60;59.90
2260;DHT22;333;48.800;9.530;2023-07-20T14:29:29;28.20;60.50
2260;DHT22;333;48.800;9.530;2023-07-20T14:31:57;27.90;62.50
2260;DHT22;333;48.800;9.530;2023-07-20T14:34:24;27.60;61.60
2260;DHT22;333;48.800;9.530;2023-07-20T14:36:51;27.10;62.00
2260;DHT22;333;48.800;9.530;2023-07-20T14:39:19;27.80;62.80
2260;DHT22;333;48.800;9.530;2023-07-20T14:41:46;28.10;61.00
2260;DHT22;333;48.800;9.530;2023-07-20T14:44:13;28.70;60.80
2260;DHT22;333;48.800;9.530;2023-07-20T14:46:41;29.80;58.20
2260;DHT22;333;48.800;9.530;2023-07-20T14:49:08;29.50;58.60
2260;DHT22;333;48.800;9.530;2023-07-20T14:51:36;29.40;58.40
2260;DHT22;333;48.800;9.530;2023-07-20T14:54:09;29.40;58.30
2260;DHT22;333;48.800;9.530;2023-07-20T14:56:38;29.70;58.90
2260;DHT22;333;48.800;9.530;2023-07-20T14:59:05;29.60;58.30
2260;DHT22;333;48.800;9.530;2023-07-20T15:01:32;29.70;57.80
2260;DHT22;333;48.800;9.530;2023-07-20T15:04:01;30.10;56.50
2260;DHT22;333;48.800;9.530;2023-07-20T15:06:28;30.30;56.90
2260;DHT22;333;48.800;9.530;2023-07-20T15:08:56;29.80;56.00
2260;DHT22;333;48.800;9.530;2023-07-20T15:11:23;28.90;58.50
2260;DHT22;333;48.800;9.530;2023-07-20T15:13:50;28.60;58.20
2260;DHT22;333;48.800;9.530;2023-07-20T15:16:17;28.90;57.60
2260;DHT22;333;48.800;9.530;2023-07-20T15:18:44;28.80;57.90
2260;DHT22;333;48.800;9.530;2023-07-20T15:21:12;28.40;59.00
2260;DHT22;333;48.800;9.530;2023-07-20T15:23:39;28.70;59.10
2260;DHT22;333;48.800;9.530;2023-07-20T15:26:06;29.10;57.80
2260;DHT22;333;48.800;9.530;2023-07-20T15:28:33;28.60;58.00
2260;DHT22;333;48.800;9.530;2023-07-20T15:31:14;28.50;58.40
2260;DHT22;333;48.800;9.530;2023-07-20T15:33:41;29.10;57.50
2260;DHT22;333;48.800;9.530;2023-07-20T15:36:09;29.40;57.30
2260;DHT22;333;48.800;9.530;2023-07-20T15:38:37;29.70;57.50
2260;DHT22;333;48.800;9.530;2023-07-20T15:41:04;29.20;57.10
2260;DHT22;333;48.800;9.530;2023-07-20T15:43:31;29.50;56.30
2260;DHT22;333;48.800;9.530;2023-07-20T15:48:55;29.30;57.00
2260;DHT22;333;48.800;9.530;2023-07-20T15:51:22;30.20;56.40
2260;DHT22;333;48.800;9.530;2023-07-20T15:53:50;30.10;56.30
2260;DHT22;333;48.800;9.530;2023-07-20T15:56:17;30.40;56.20
2260;DHT22;333;48.800;9.530;2023-07-20T15:58:44;28.90;57.40
2260;DHT22;333;48.800;9.530;2023-07-20T16:01:11;28.60;58.70
2260;DHT22;333;48.800;9.530;2023-07-20T16:03:39;28.00;58.40
2260;DHT22;333;48.800;9.530;2023-07-20T16:06:06;28.00;58.30
2260;DHT22;333;48.800;9.530;2023-07-20T16:08:34;28.30;59.50
2260;DHT22;333;48.800;9.530;2023-07-20T16:11:02;28.90;58.70
2260;DHT22;333;48.800;9.530;2023-07-20T16:13:29;29.10;57.30
2260;DHT22;333;48.800;9.530;2023-07-20T16:15:56;29.10;58.00
2260;DHT22;333;48.800;9.530;2023-07-20T16:18:23;29.50;58.00
2260;DHT22;333;48.800;9.530;2023-07-20T16:20:51;29.50;56.60
2260;DHT22;333;48.800;9.530;2023-07-20T16:23:21;29.30;57.60
2260;DHT22;333;48.800;9.530;2023-07-20T16:25:48;28.40;60.00
2260;DHT22;333;48.800;9.530;2023-07-20T16:28:16;28.10;59.20